Time;durP1;ratioP1;P1;durP2;ratioP2;P2;SDS_P1;SDS_P2;PMS_P1;PMS_P2;Temp;Humidity;BMP_temperature;BMP_pressure;BME280_temperature;BME280_humidity;BME280_pressure;Samples;Min_cycle;Max_cycle;Signal;HPM_P1;HPM_P2
2023/03/30 00:00:19;;;;;;;6.63;5.27;;;;;;;-143.84;64.39;45231.88;5075545;28;20437;-73
2023/03/30 00:02:48;;;;;;;8.20;6.07;;;;;;;-143.84;63.57;45231.88;5075426;28;20448;-74
2023/03/30 00:05:16;;;;;;;5.50;5.00;;;;;;;-143.84;63.88;45243.31;5075123;28;20444;-73
2023/03/30 00:07:44;;;;;;;5.80;5.30;;;;;;;-143.84;63.57;45205.22;5075257;28;20843;-73
2023/03/30 00:10:13;;;;;;;7.73;5.47;;;;;;;-143.84;63.93;45237.59;5074880;28;20484;-73
2023/03/30 00:12:42;;;;;;;8.63;5.60;;;;;;;-143.84;63.36;45260.44;5074883;28;20811;-73
2023/03/30 00:15:12;;;;;;;7.00;5.67;;;;;;;-143.84;63.91;45254.72;5075269;28;20455;-73
2023/03/30 00:17:40;;;;;;;8.03;6.23;;;;;;;-143.84;64.71;45237.59;5075188;28;20443;-73
2023/03/30 00:20:10;;;;;;;6.63;5.50;;;;;;;-143.84;65.15;45224.25;5074889;28;20443;-74
2023/03/30 00:22:38;;;;;;;7.97;6.57;;;;;;;-143.84;65.30;45224.25;5074837;28;20441;-74
2023/03/30 00:25:07;;;;;;;7.70;6.30;;;;;;;-143.84;65.77;45212.84;5074760;28;21064;-73
2023/03/30 00:27:34;;;;;;;6.73;5.33;;;;;;;-143.84;65.88;45224.25;5074678;28;20465;-73
2023/03/30 00:30:02;;;;;;;7.47;6.67;;;;;;;-143.84;66.30;45229.97;5073602;28;20516;-73
2023/03/30 00:32:30;;;;;;;8.90;6.37;;;;;;;-143.84;67.42;45229.97;5074907;28;20429;-74
2023/03/30 00:34:58;;;;;;;7.53;6.70;;;;;;;-143.84;67.10;45247.09;5074628;28;20596;-73
2023/03/30 00:37:26;;;;;;;6.27;5.50;;;;;;;-143.84;68.01;45247.09;5074808;28;20441;-74
2023/03/30 00:39:53;;;;;;;9.57;5.90;;;;;;;-143.84;67.96;45224.25;5074550;28;20495;-73
2023/03/30 00:42:21;;;;;;;6.40;5.80;;;;;;;-143.84;67.45;45243.31;5074439;28;20873;-73
2023/03/30 00:45:17;;;;;;;6.40;5.80;;;;;;;-143.84;67.19;45243.31;5074379;28;20974;-73
2023/03/30 00:47:52;;;;;;;7.50;6.23;;;;;;;-143.84;66.93;45203.31;5061438;28;20485;-73
2023/03/30 00:50:22;;;;;;;7.50;6.37;;;;;;;-143.84;66.98;45231.88;5074607;28;20514;-73
2023/03/30 00:52:52;;;;;;;6.60;5.53;;;;;;;-143.84;66.49;45245.19;5074504;28;20506;-73
2023/03/30 00:55:22;;;;;;;6.23;5.73;;;;;;;-143.84;66.98;45214.72;5074543;28;20972;-73
2023/03/30 00:57:52;;;;;;;10.30;6.37;;;;;;;-143.84;66.86;45260.44;5074456;28;20495;-73
2023/03/30 01:00:22;;;;;;;8.27;6.80;;;;;;;-143.84;67.13;45245.19;5074118;28;20441;-73
2023/03/30 01:02:57;;;;;;;7.13;6.43;;;;;;;-143.84;67.07;45233.78;5074042;28;20432;-73
2023/03/30 01:05:27;;;;;;;10.63;6.10;;;;;;;-143.84;67.47;45264.25;5074386;28;20461;-73
2023/03/30 01:07:56;;;;;;;7.17;6.30;;;;;;;-143.84;66.93;45220.44;5074710;28;20473;-74
2023/03/30 01:10:24;;;;;;;9.00;7.50;;;;;;;-143.84;67.50;45247.09;5073857;28;20907;-73
2023/03/30 01:12:52;;;;;;;7.50;6.57;;;;;;;-143.84;67.09;45231.88;5074134;28;20505;-74
2023/03/30 01:15:20;;;;;;;9.27;6.90;;;;;;;-143.84;67.10;45235.69;5073748;28;20523;-74
2023/03/30 01:18:07;;;;;;;8.50;6.40;;;;;;;-143.84;66.58;45239.50;5074798;28;20449;-74
2023/03/30 01:21:22;;;;;;;7.30;6.53;;;;;;;-143.84;66.32;45229.97;5073813;28;20448;-73
2023/03/30 01:24:22;;;;;;;7.50;6.57;;;;;;;-143.84;65.93;45258.53;5012006;28;20454;-74
2023/03/30 01:26:57;;;;;;;7.27;6.33;;;;;;;-143.84;66.02;45237.59;5011832;28;20467;-73
2023/03/30 01:29:40;;;;;;;8.03;7.23;;;;;;;-143.84;65.84;45256.63;5062804;28;20474;-73
2023/03/30 01:32:37;;;;;;;6.27;5.77;;;;;;;-143.84;65.50;45241.41;5073538;28;20468;-73
2023/03/30 01:35:33;;;;;;;6.17;5.67;;;;;;;-143.84;64.95;45220.44;5073705;28;20438;-73
2023/03/30 01:38:34;;;;;;;8.87;6.43;;;;;;;-143.84;64.30;45239.50;5073344;28;20468;-73
2023/03/30 01:41:12;;;;;;;13.57;6.10;;;;;;;-143.84;63.85;45218.53;5069817;28;20506;-74
2023/03/30 01:43:47;;;;;;;5.97;5.40;;;;;;;-143.84;63.11;45231.88;5073586;28;20809;-74
2023/03/30 01:46:23;;;;;;;14.70;5.73;;;;;;;-143.84;62.81;45247.09;5073126;28;20559;-74
2023/03/30 01:48:58;;;;;;;5.93;5.40;;;;;;;-143.84;62.56;45260.44;5073090;28;20429;-74
2023/03/30 01:51:29;;;;;;;5.90;5.40;;;;;;;-143.84;62.64;45241.41;5073380;28;20511;-74
2023/03/30 01:54:03;;;;;;;8.33;5.50;;;;;;;-143.84;62.55;45243.31;5073045;28;20498;-74
2023/03/30 01:56:36;;;;;;;5.43;5.03;;;;;;;-143.84;61.93;45245.19;5073658;28;20421;-74
2023/03/30 01:59:09;;;;;;;5.93;5.37;;;;;;;-143.84;62.10;45235.69;5073283;28;20865;-74
2023/03/30 02:01:40;;;;;;;5.93;5.43;;;;;;;-143.84;61.72;45243.31;5073282;28;20421;-73
2023/03/30 02:04:10;;;;;;;5.30;4.80;;;;;;;-143.84;60.87;45235.69;5073166;28;20479;-74
2023/03/30 02:06:42;;;;;;;9.60;4.90;;;;;;;-143.84;60.30;45247.09;5073593;28;20835;-74
2023/03/30 02:09:14;;;;;;;6.20;5.10;;;;;;;-143.84;60.57;45243.31;5073110;28;20827;-73
2023/03/30 02:11:45;;;;;;;5.07;4.67;;;;;;;-143.84;59.35;45241.41;5072574;28;20506;-73
2023/03/30 02:14:15;;;;;;;5.90;5.40;;;;;;;-143.84;59.38;45231.88;5072668;28;20495;-73
2023/03/30 02:16:47;;;;;;;11.10;5.83;;;;;;;-143.84;58.33;45235.69;5072958;28;20517;-73
2023/03/30 02:19:15;;;;;;;8.57;5.70;;;;;;;-143.84;58.21;45250.91;5072920;28;20429;-73
2023/03/30 02:21:43;;;;;;;6.67;5.73;;;;;;;-143.84;57.81;45243.31;5072872;28;20452;-73
2023/03/30 02:24:16;;;;;;;7.03;5.53;;;;;;;-143.84;57.37;45216.63;5072822;28;20483;-74
2023/03/30 02:26:47;;;;;;;5.30;4.90;;;;;;;-143.84;56.40;45269.97;5072427;28;20476;-74
2023/03/30 02:29:16;;;;;;;7.33;4.90;;;;;;;-143.84;55.38;45254.72;5072748;28;20491;-73
2023/03/30 02:31:45;;;;;;;5.90;5.30;;;;;;;-143.84;54.52;45210.94;5072979;28;20424;-73
2023/03/30 02:34:24;;;;;;;7.50;5.00;;;;;;;-143.84;53.81;45250.91;5072298;28;20437;-73
2023/03/30 02:37:11;;;;;;;4.80;4.30;;;;;;;-143.84;52.66;45262.34;5072368;28;20943;-73
2023/03/30 02:39:51;;;;;;;5.33;4.83;;;;;;;-143.84;51.80;45252.81;5072270;28;20461;-73
2023/03/30 02:42:48;;;;;;;5.63;5.13;;;;;;;-143.84;51.63;45271.88;5072254;28;20443;-73
2023/03/30 02:45:25;;;;;;;5.63;5.10;;;;;;;-143.84;51.81;45243.31;5064217;28;20966;-73
2023/03/30 02:48:06;;;;;;;5.10;4.57;;;;;;;-143.84;51.36;45210.94;5072358;28;20460;-73
2023/03/30 02:50:38;;;;;;;5.40;4.87;;;;;;;-143.84;50.69;45220.44;5072503;28;20428;-73
2023/03/30 02:53:14;;;;;;;7.37;5.50;;;;;;;-143.84;49.82;45247.09;5071385;28;20429;-73
2023/03/30 02:55:48;;;;;;;4.60;4.20;;;;;;;-143.84;48.81;45237.59;5072099;28;20872;-73
2023/03/30 02:58:20;;;;;;;4.40;4.00;;;;;;;-143.84;47.95;45212.84;5072460;28;20425;-73
2023/03/30 03:00:52;;;;;;;4.60;4.20;;;;;;;-143.84;47.72;45218.53;5072006;28;20438;-73
2023/03/30 03:03:24;;;;;;;4.47;4.10;;;;;;;-143.84;47.01;45224.25;5072009;28;20437;-73
2023/03/30 03:05:53;;;;;;;9.80;4.30;;;;;;;-143.84;46.46;45205.22;5072255;28;20926;-73
2023/03/30 03:08:24;;;;;;;7.50;4.90;;;;;;;-143.84;46.31;45249.00;5071825;28;20480;-73
2023/03/30 03:10:51;;;;;;;10.90;4.97;;;;;;;-143.84;46.75;45229.97;5071888;28;20480;-73
2023/03/30 03:13:20;;;;;;;4.20;3.70;;;;;;;-143.84;45.85;45245.19;5072224;28;20490;-73
2023/03/30 03:15:49;;;;;;;4.40;4.00;;;;;;;-143.84;44.70;45210.94;5072215;28;20436;-73
2023/03/30 03:18:17;;;;;;;9.37;3.90;;;;;;;-143.84;45.17;45220.44;5071782;28;20441;-73
2023/03/30 03:20:44;;;;;;;3.63;3.30;;;;;;;-143.84;44.18;45209.03;5072158;28;20430;-74
2023/03/30 03:23:11;;;;;;;6.33;3.33;;;;;;;-143.84;44.70;45229.97;5072123;28;20977;-72
2023/03/30 03:25:38;;;;;;;4.33;3.30;;;;;;;-143.84;44.92;45212.84;5072066;28;20441;-72
2023/03/30 03:28:06;;;;;;;5.57;4.17;;;;;;;-143.84;44.37;45222.34;5071709;28;20530;-73
2023/03/30 03:30:33;;;;;;;4.37;3.97;;;;;;;-143.84;46.47;45231.88;5054116;28;20462;-73
2023/03/30 03:33:01;;;;;;;4.97;4.53;;;;;;;-143.84;44.90;45247.09;5071741;28;20848;-69
2023/03/30 03:35:28;;;;;;;5.27;3.90;;;;;;;-143.84;44.75;45254.72;5071909;28;20966;-70
2023/03/30 03:37:56;;;;;;;4.00;3.70;;;;;;;-143.84;44.84;45231.88;5071967;28;20463;-68
2023/03/30 03:40:23;;;;;;;5.03;4.53;;;;;;;-143.84;44.38;45212.84;5071912;28;20490;-71
2023/03/30 03:42:50;;;;;;;4.47;3.80;;;;;;;-143.84;44.26;45210.94;5071832;28;20438;-69
2023/03/30 03:45:17;;;;;;;5.83;4.23;;;;;;;-143.84;44.61;45224.25;5071670;28;20437;-69
2023/03/30 03:47:45;;;;;;;3.60;3.30;;;;;;;-143.84;44.30;45239.50;5071825;28;20469;-70
2023/03/30 03:50:14;;;;;;;4.40;4.00;;;;;;;-143.84;43.88;45241.41;5071508;28;20437;-70
2023/03/30 03:52:41;;;;;;;6.80;4.40;;;;;;;-143.84;43.94;45209.03;5071512;28;20849;-68
2023/03/30 03:55:09;;;;;;;4.33;3.77;;;;;;;-143.84;44.04;45214.72;5071834;28;20469;-68
2023/03/30 03:57:36;;;;;;;6.20;3.50;;;;;;;-143.84;43.86;45218.53;5071421;28;20433;-68
2023/03/30 04:00:14;;;;;;;8.23;3.63;;;;;;;-143.84;44.11;45229.97;5071786;28;20499;-68
2023/03/30 04:02:41;;;;;;;3.87;3.57;;;;;;;-143.84;44.24;45226.16;5071338;28;20431;-68
2023/03/30 04:05:08;;;;;;;4.73;4.17;;;;;;;-143.84;43.78;45247.09;5071791;28;20448;-68
2023/03/30 04:07:37;;;;;;;8.60;4.50;;;;;;;-143.84;43.99;45258.53;5072236;28;20534;-68
2023/03/30 04:10:05;;;;;;;4.83;3.70;;;;;;;-143.84;43.82;45216.63;5071557;28;20558;-68
2023/03/30 04:12:32;;;;;;;5.20;3.83;;;;;;;-143.84;44.55;45245.19;5070784;28;20447;-68
2023/03/30 04:14:59;;;;;;;5.90;3.60;;;;;;;-143.84;44.34;45235.69;5070761;28;20439;-69
2023/03/30 04:17:26;;;;;;;3.90;3.50;;;;;;;-143.84;43.76;45216.63;5071697;28;20440;-68
2023/03/30 04:19:55;;;;;;;5.20;4.10;;;;;;;-143.84;44.14;45233.78;5072149;28;20447;-68
2023/03/30 04:22:23;;;;;;;5.43;4.17;;;;;;;-143.84;44.07;45220.44;5073215;28;20442;-68
2023/03/30 04:24:51;;;;;;;3.70;3.37;;;;;;;-143.84;43.62;45226.16;5072951;28;20481;-68
2023/03/30 04:27:18;;;;;;;4.57;4.17;;;;;;;-143.84;43.53;45235.69;5073194;28;20476;-68
2023/03/30 04:29:46;;;;;;;4.40;3.67;;;;;;;-143.84;44.03;45228.06;5072604;28;20444;-68
2023/03/30 04:32:19;;;;;;;4.23;3.47;;;;;;;-143.84;43.55;45212.84;5072350;28;20482;-68
2023/03/30 04:34:46;;;;;;;3.87;3.20;;;;;;;-143.84;44.00;45235.69;5072581;28;20432;-68
2023/03/30 04:37:17;;;;;;;6.90;3.50;;;;;;;-143.84;43.32;45245.19;5072627;28;20476;-68
2023/03/30 04:39:44;;;;;;;12.03;4.07;;;;;;;-143.84;43.50;45220.44;5072754;28;20449;-68
2023/03/30 04:42:14;;;;;;;8.23;3.60;;;;;;;-143.84;43.40;45216.63;5072877;28;20954;-70
2023/03/30 04:44:41;;;;;;;4.47;3.60;;;;;;;-143.84;43.05;45245.19;5073394;28;20444;-70
2023/03/30 04:47:08;;;;;;;3.87;3.17;;;;;;;-143.84;42.89;45212.84;5073282;28;20839;-69
2023/03/30 04:49:35;;;;;;;6.77;3.90;;;;;;;-143.84;42.86;45224.25;5072621;28;20441;-69
2023/03/30 04:52:03;;;;;;;4.30;3.60;;;;;;;-143.84;42.55;45209.03;5072613;28;20443;-69
2023/03/30 04:54:30;;;;;;;7.77;3.77;;;;;;;-143.84;42.27;45239.50;5073147;28;21256;-69
2023/03/30 04:56:57;;;;;;;6.30;4.07;;;;;;;-143.84;42.15;45191.88;5073241;28;21189;-69
2023/03/30 04:59:26;;;;;;;3.80;3.23;;;;;;;-143.84;41.57;45216.63;5073265;28;20435;-70
2023/03/30 05:01:53;;;;;;;4.63;4.20;;;;;;;-143.84;41.25;45228.06;5072850;28;20873;-70
2023/03/30 05:04:20;;;;;;;7.60;3.87;;;;;;;-143.84;41.74;45195.69;5072358;28;20442;-69
2023/03/30 05:06:48;;;;;;;7.67;4.60;;;;;;;-143.84;40.78;45250.91;5072648;28;21012;-69
2023/03/30 05:09:15;;;;;;;7.10;4.00;;;;;;;-143.84;40.68;45205.22;5072245;28;20520;-69
2023/03/30 05:11:43;;;;;;;6.50;4.53;;;;;;;-143.84;40.95;45195.69;5072062;28;20847;-70
2023/03/30 05:14:10;;;;;;;4.67;4.03;;;;;;;-143.84;40.51;45209.03;5072767;28;20833;-70
2023/03/30 05:16:38;;;;;;;4.53;3.80;;;;;;;-143.84;40.26;45247.09;5071494;28;20441;-69
2023/03/30 05:19:05;;;;;;;3.33;3.03;;;;;;;-143.84;39.38;45222.34;5072192;28;20445;-69
2023/03/30 05:21:33;;;;;;;11.87;6.90;;;;;;;-143.84;39.98;45176.66;5070614;28;20931;-73
2023/03/30 05:24:00;;;;;;;7.67;3.80;;;;;;;-143.84;39.52;45203.31;5070514;28;20440;-73
2023/03/30 05:26:27;;;;;;;5.67;3.47;;;;;;;-143.84;39.55;45224.25;5070353;28;21098;-73
2023/03/30 05:28:55;;;;;;;5.50;4.87;;;;;;;-143.84;39.35;45233.78;5070351;28;20487;-73
2023/03/30 05:31:22;;;;;;;9.47;3.97;;;;;;;-143.84;38.94;45199.50;5070395;28;20433;-73
2023/03/30 05:33:51;;;;;;;5.20;3.50;;;;;;;-143.84;39.21;45210.94;5070511;28;20510;-73
2023/03/30 05:36:18;;;;;;;4.47;3.50;;;;;;;-143.84;39.05;45212.84;5070378;28;20930;-73
2023/03/30 05:38:45;;;;;;;5.50;3.17;;;;;;;-143.84;39.00;45191.88;5070275;28;20510;-73
2023/03/30 05:41:13;;;;;;;3.80;3.40;;;;;;;-143.84;39.46;45207.13;5069956;28;20454;-73
2023/03/30 05:43:42;;;;;;;5.50;3.30;;;;;;;-143.84;39.66;45239.50;5070500;28;20483;-73
2023/03/30 05:46:09;;;;;;;6.30;3.83;;;;;;;-143.84;39.46;45201.41;5069954;28;20499;-73
2023/03/30 05:48:36;;;;;;;4.43;3.30;;;;;;;-143.84;39.92;45189.97;5069617;28;20472;-73
2023/03/30 05:51:05;;;;;;;4.00;3.70;;;;;;;-143.84;40.22;45218.53;5070259;28;20506;-73
2023/03/30 05:53:32;;;;;;;4.73;3.23;;;;;;;-143.84;40.04;45189.97;5069122;28;20448;-73
2023/03/30 05:55:59;;;;;;;3.43;3.13;;;;;;;-143.84;40.36;45210.94;5068949;28;20452;-73
2023/03/30 05:58:27;;;;;;;3.70;3.40;;;;;;;-143.84;40.32;45214.72;5069465;28;20539;-73
2023/03/30 06:00:57;;;;;;;4.13;3.23;;;;;;;-143.84;40.30;45195.69;5069108;28;20520;-73
2023/03/30 06:03:24;;;;;;;4.30;3.53;;;;;;;-143.84;41.00;45224.25;5069017;28;20444;-73
2023/03/30 06:05:53;;;;;;;5.10;3.23;;;;;;;-143.84;40.78;45210.94;5069419;28;20433;-73
2023/03/30 06:08:22;;;;;;;3.07;2.87;;;;;;;-143.84;40.93;45222.34;5070013;28;20484;-73
2023/03/30 06:10:53;;;;;;;3.83;3.37;;;;;;;-143.84;40.90;45197.59;5069586;28;21440;-73
2023/03/30 06:13:20;;;;;;;4.80;3.20;;;;;;;-143.84;40.77;45212.84;5069731;28;20472;-73
2023/03/30 06:15:48;;;;;;;3.57;3.10;;;;;;;-143.84;40.57;45209.03;5069416;28;20453;-73
2023/03/30 06:18:15;;;;;;;4.03;3.60;;;;;;;-143.84;40.39;45167.13;5069281;28;20946;-73
2023/03/30 06:20:42;;;;;;;4.60;3.50;;;;;;;-143.84;40.15;45186.16;5069344;28;20456;-73
2023/03/30 06:23:10;;;;;;;6.27;3.30;;;;;;;-143.84;39.84;45210.94;5069156;28;20451;-73
2023/03/30 06:25:38;;;;;;;5.67;3.90;;;;;;;-143.84;39.58;45222.34;5068678;28;20520;-73
2023/03/30 06:28:06;;;;;;;5.10;3.40;;;;;;;-143.84;39.12;45186.16;5069060;28;20499;-73
2023/03/30 06:30:33;;;;;;;4.07;3.77;;;;;;;-143.84;39.03;45178.56;5068614;28;20449;-73
2023/03/30 06:33:00;;;;;;;7.10;4.73;;;;;;;-143.84;39.50;45199.50;5069302;28;20436;-73
2023/03/30 06:35:28;;;;;;;4.33;3.93;;;;;;;-143.84;39.32;45199.50;5069377;28;20514;-73
2023/03/30 06:37:55;;;;;;;7.00;3.97;;;;;;;-143.84;38.81;45216.63;5069016;28;20432;-73
2023/03/30 06:40:22;;;;;;;6.60;3.87;;;;;;;-143.84;39.00;45188.06;5069196;28;20429;-73
2023/03/30 06:42:51;;;;;;;4.37;3.97;;;;;;;-143.84;38.15;45163.31;5069096;28;20498;-72
2023/03/30 06:45:18;;;;;;;6.20;4.30;;;;;;;-143.84;38.67;45174.75;5069261;28;20448;-73
2023/03/30 06:47:45;;;;;;;5.80;4.00;;;;;;;-143.84;38.37;45178.56;5068953;28;20445;-73
2023/03/30 06:50:13;;;;;;;15.20;4.17;;;;;;;-143.84;38.38;45193.78;5069333;28;20468;-73
2023/03/30 06:52:40;;;;;;;8.40;3.63;;;;;;;-143.84;37.02;45170.94;5068806;28;20483;-73
2023/03/30 06:55:08;;;;;;;4.63;4.23;;;;;;;-143.84;37.24;45205.22;5069107;28;20436;-73
2023/03/30 06:57:35;;;;;;;4.10;3.67;;;;;;;-143.84;37.12;45165.22;5069515;28;20477;-73
2023/03/30 07:00:12;;;;;;;4.57;3.87;;;;;;;-143.84;36.83;45184.25;5069344;28;20425;-73
2023/03/30 07:02:39;;;;;;;4.60;3.80;;;;;;;-143.84;36.01;45167.13;5069024;28;20498;-73
2023/03/30 07:05:07;;;;;;;3.63;3.33;;;;;;;-143.84;35.90;45176.66;5068831;28;20955;-73
2023/03/30 07:07:36;;;;;;;5.60;3.70;;;;;;;-143.84;35.45;45188.06;5067709;28;20910;-73
2023/03/30 07:10:08;;;;;;;3.57;3.27;;;;;;;-143.84;34.82;45157.59;5067954;28;21109;-74
2023/03/30 07:12:36;;;;;;;5.80;3.87;;;;;;;-143.84;35.06;45191.88;5068510;28;20826;-73
2023/03/30 07:15:06;;;;;;;6.40;3.20;;;;;;;-143.84;34.70;45161.41;5068952;28;20444;-73
2023/03/30 07:17:34;;;;;;;3.60;3.30;;;;;;;-143.84;35.01;45159.50;5067997;28;20446;-72
2023/03/30 07:20:01;;;;;;;6.27;3.93;;;;;;;-143.84;34.45;45178.56;5068859;28;20442;-72
2023/03/30 07:22:28;;;;;;;3.60;3.30;;;;;;;-143.84;34.34;45136.66;5068715;28;20453;-73
2023/03/30 07:24:55;;;;;;;3.30;3.03;;;;;;;-143.84;34.15;45161.41;5068778;28;20535;-73
2023/03/30 07:27:23;;;;;;;4.27;3.43;;;;;;;-143.84;33.25;45159.50;5068796;28;20447;-73
2023/03/30 07:29:51;;;;;;;5.10;3.50;;;;;;;-143.84;32.69;45142.38;5068676;28;21305;-73
2023/03/30 07:32:20;;;;;;;4.00;3.60;;;;;;;-143.84;33.16;45161.41;5068177;28;20434;-73
2023/03/30 07:34:47;;;;;;;3.80;3.15;;;;;;;-143.84;32.80;45142.38;5068461;28;20446;-71
2023/03/30 07:37:15;;;;;;;2.77;2.57;;;;;;;-143.84;32.29;45151.91;5068476;28;20287;-73
2023/03/30 07:39:42;;;;;;;3.67;3.20;;;;;;;-143.84;33.22;45161.41;5070380;28;20453;-73
2023/03/30 07:42:09;;;;;;;4.68;3.72;;;;;;;-143.84;32.70;45146.19;5072865;28;20449;-69
2023/03/30 07:44:36;;;;;;;3.17;2.87;;;;;;;-143.84;33.06;45167.13;5074134;28;20191;-70
2023/03/30 07:47:05;;;;;;;3.80;3.50;;;;;;;-143.84;32.43;45138.56;5073191;28;21178;-69
2023/03/30 07:49:34;;;;;;;5.53;3.20;;;;;;;-143.84;31.43;45186.16;5074061;28;20217;-69
2023/03/30 07:52:01;;;;;;;3.60;3.30;;;;;;;-143.84;31.92;45125.22;5073607;28;20449;-69
2023/03/30 07:54:28;;;;;;;3.33;3.07;;;;;;;-143.84;31.52;45127.13;5072666;28;20982;-69
2023/03/30 07:56:56;;;;;;;3.80;3.10;;;;;;;-143.84;31.63;45121.44;5072843;28;20934;-69
2023/03/30 07:59:23;;;;;;;3.50;3.07;;;;;;;-143.84;32.35;45125.22;5073592;28;20440;-69
2023/03/30 08:01:53;;;;;;;3.60;3.27;;;;;;;-143.84;31.26;45136.66;5073688;28;20938;-69
2023/03/30 08:04:23;;;;;;;4.83;3.90;;;;;;;-143.84;32.13;45134.75;5071471;28;20499;-70
2023/03/30 08:06:52;;;;;;;8.07;4.03;;;;;;;-143.84;31.87;45136.66;5071265;28;20511;-73
2023/03/30 08:09:19;;;;;;;6.03;3.43;;;;;;;-143.84;31.02;45142.38;5071118;28;20848;-73
2023/03/30 08:11:47;;;;;;;2.80;2.60;;;;;;;-143.84;31.33;45125.22;5071961;28;20540;-73
2023/03/30 08:14:14;;;;;;;3.60;3.30;;;;;;;-143.84;31.09;45094.78;5071868;28;20446;-73
2023/03/30 08:16:41;;;;;;;3.83;2.90;;;;;;;-143.84;31.82;45110.00;5071609;28;20448;-73
2023/03/30 08:19:09;;;;;;;5.90;3.70;;;;;;;-143.84;31.16;45134.75;5071582;28;20445;-73
2023/03/30 08:21:36;;;;;;;3.40;3.10;;;;;;;-143.84;29.78;45136.66;5071327;28;20449;-73
2023/03/30 08:24:05;;;;;;;3.20;2.90;;;;;;;-143.84;29.32;45108.09;5071957;28;20425;-73
2023/03/30 08:26:32;;;;;;;3.50;3.23;;;;;;;-143.84;29.88;45125.22;5071764;28;20447;-73
2023/03/30 08:28:59;;;;;;;3.77;2.70;;;;;;;-143.84;28.80;45153.81;5071564;28;20475;-73
2023/03/30 08:31:26;;;;;;;3.80;3.40;;;;;;;-143.84;29.21;45129.03;5071456;28;20450;-74
2023/03/30 08:33:53;;;;;;;34.73;20.90;;;;;;;-143.84;28.87;45127.13;5071961;28;20934;-73
2023/03/30 08:36:20;;;;;;;65.10;30.30;;;;;;;-143.84;29.37;45121.44;5071930;28;20858;-74
2023/03/30 08:38:47;;;;;;;5.70;3.77;;;;;;;-143.84;28.98;45119.53;5071443;28;20533;-73
2023/03/30 08:41:47;;;;;;;3.87;2.60;;;;;;;-143.84;27.51;45111.91;5071900;28;20443;-70
2023/03/30 08:44:22;;;;;;;3.80;2.60;;;;;;;-143.84;26.91;45123.34;5073009;28;20538;-70
2023/03/30 08:46:50;;;;;;;6.23;2.60;;;;;;;-143.84;27.78;45134.75;5073201;28;20437;-69
2023/03/30 08:49:21;;;;;;;7.07;3.40;;;;;;;-143.84;28.22;45125.22;5073253;28;20472;-69
2023/03/30 08:51:50;;;;;;;3.00;2.70;;;;;;;-143.84;27.25;45140.47;5071989;28;20444;-70
2023/03/30 08:54:20;;;;;;;3.70;2.73;;;;;;;-143.84;27.59;45108.09;5073155;28;20432;-70
2023/03/30 08:56:59;;;;;;;2.70;2.50;;;;;;;-143.84;28.14;45144.28;5073191;28;20452;-70
2023/03/30 08:59:33;;;;;;;3.00;2.80;;;;;;;-143.84;28.36;45117.63;5072592;28;20498;-69
2023/03/30 09:02:03;;;;;;;3.23;2.63;;;;;;;-143.84;27.58;45132.84;5072603;28;20432;-70
2023/03/30 09:04:44;;;;;;;6.90;2.70;;;;;;;-143.84;27.98;45117.63;5070818;28;20525;-69
2023/03/30 09:07:17;;;;;;;3.10;2.90;;;;;;;-143.84;27.89;45119.53;5075748;28;21044;-69
2023/03/30 09:09:47;;;;;;;2.80;2.60;;;;;;;-143.84;27.91;45136.66;5070549;28;20625;-72
2023/03/30 09:12:22;;;;;;;4.63;3.00;;;;;;;-143.84;28.45;45098.56;5050778;28;20456;-74
2023/03/30 09:14:54;;;;;;;7.43;3.93;;;;;;;-143.84;28.18;45117.63;5068966;28;20525;-73
2023/03/30 09:17:25;;;;;;;3.30;3.00;;;;;;;-143.84;28.06;45138.56;5071379;28;20449;-76
2023/03/30 09:19:57;;;;;;;2.77;2.57;;;;;;;-143.84;28.05;45159.50;5054309;28;20452;-76
2023/03/30 09:22:33;;;;;;;3.60;3.07;;;;;;;-143.84;29.54;45142.38;5038843;28;20446;-76
2023/03/30 09:25:00;;;;;;;5.50;2.90;;;;;;;-143.84;27.72;45108.09;5071656;28;20455;-76
2023/03/30 09:27:40;;;;;;;3.23;2.73;;;;;;;-143.84;28.50;45125.22;5071215;28;20448;-77
2023/03/30 09:30:18;;;;;;;4.63;3.17;;;;;;;-143.84;29.33;45113.81;5069535;28;20501;-76
2023/03/30 09:32:58;;;;;;;3.80;3.30;;;;;;;-143.84;28.28;45127.13;5069573;28;20558;-77
2023/03/30 09:35:33;;;;;;;7.10;3.20;;;;;;;-143.84;29.67;45146.19;5069952;28;20925;-76
2023/03/30 09:38:00;;;;;;;3.27;2.77;;;;;;;-143.84;29.42;45148.09;5068997;28;20450;-77
2023/03/30 09:40:44;;;;;;;2.43;2.20;;;;;;;-143.84;30.32;45140.47;5068335;28;20446;-77
2023/03/30 09:43:19;;;;;;;4.47;3.10;;;;;;;-143.84;28.90;45115.72;5082140;28;20467;-78
2023/03/30 09:45:47;;;;;;;3.33;2.70;;;;;;;-143.84;29.02;45125.22;5090126;28;20966;-78
2023/03/30 09:48:16;;;;;;;3.63;3.07;;;;;;;-143.84;28.22;45138.56;5090422;28;20440;-77
2023/03/30 09:50:45;;;;;;;3.10;2.80;;;;;;;-143.84;28.10;45117.63;5089587;28;20475;-76
2023/03/30 09:53:23;;;;;;;2.90;2.57;;;;;;;-143.84;28.89;45110.00;5091096;28;20576;-77
2023/03/30 09:56:01;;;;;;;3.90;3.10;;;;;;;-143.84;27.28;45111.91;5091796;28;20443;-78
2023/03/30 09:58:31;;;;;;;2.83;2.57;;;;;;;-143.84;28.82;45127.13;5092334;28;20444;-78
2023/03/30 10:01:04;;;;;;;7.70;2.43;;;;;;;-143.84;27.80;45110.00;5092216;28;20524;-78
2023/03/30 10:03:32;;;;;;;7.17;3.20;;;;;;;-143.84;27.76;45115.72;5091815;28;20428;-79
2023/03/30 10:06:03;;;;;;;3.00;2.70;;;;;;;-143.84;28.81;45113.81;5092391;28;20477;-79
2023/03/30 10:08:30;;;;;;;2.93;2.73;;;;;;;-143.84;28.93;45102.38;5092719;28;20431;-81
2023/03/30 10:11:00;;;;;;;6.43;2.47;;;;;;;-143.84;29.13;45096.66;5092359;28;20839;-77
2023/03/30 10:13:33;;;;;;;3.97;2.70;;;;;;;-143.84;30.31;45110.00;5089488;28;20439;-80
2023/03/30 10:16:05;;;;;;;6.90;3.13;;;;;;;-143.84;28.45;45130.94;5088849;28;20446;-79
2023/03/30 10:18:39;;;;;;;3.00;2.70;;;;;;;-143.84;29.08;45117.63;5089606;28;20454;-78
2023/03/30 10:21:16;;;;;;;5.00;3.07;;;;;;;-143.84;28.56;45113.81;5090186;28;20444;-78
2023/03/30 10:23:46;;;;;;;2.53;2.27;;;;;;;-143.84;28.44;45119.53;5088802;28;20437;-75
2023/03/30 10:26:17;;;;;;;3.17;2.80;;;;;;;-143.84;28.49;45117.63;5088771;28;20828;-75
2023/03/30 10:28:56;;;;;;;3.70;2.90;;;;;;;-143.84;28.17;45083.34;5090016;28;20512;-79
2023/03/30 10:31:26;;;;;;;3.10;2.90;;;;;;;-143.84;29.39;45163.31;5089161;28;20828;-80
2023/03/30 10:33:57;;;;;;;5.43;3.30;;;;;;;-143.84;28.02;45121.44;5089298;28;20974;-75
2023/03/30 10:36:30;;;;;;;4.37;2.50;;;;;;;-143.84;29.56;45163.31;5089449;28;20779;-74
2023/03/30 10:39:06;;;;;;;10.50;2.50;;;;;;;-143.84;28.71;45108.09;5090473;28;20537;-77
2023/03/30 10:41:38;;;;;;;3.47;3.13;;;;;;;-143.84;29.01;45106.19;5090065;28;20449;-76
2023/03/30 10:44:20;;;;;;;3.00;2.63;;;;;;;-143.84;28.41;45111.91;5089890;28;20502;-75
2023/03/30 10:46:50;;;;;;;2.97;2.63;;;;;;;-143.84;28.09;45159.50;5089197;28;20527;-76
2023/03/30 10:49:32;;;;;;;4.13;2.90;;;;;;;-143.84;29.53;45098.56;5089470;28;20479;-76
2023/03/30 10:52:07;;;;;;;3.27;3.07;;;;;;;-143.84;29.81;45111.91;5089366;28;20448;-76
2023/03/30 10:54:41;;;;;;;2.83;2.63;;;;;;;-143.84;29.10;45115.72;5089513;28;20439;-76
2023/03/30 10:57:14;;;;;;;4.50;3.07;;;;;;;-143.84;29.85;45111.91;5089186;28;20948;-76
2023/03/30 11:00:02;;;;;;;3.30;3.00;;;;;;;-143.84;30.49;45130.94;5088545;28;20794;-76
2023/03/30 11:02:50;;;;;;;5.43;2.90;;;;;;;-143.84;30.87;45111.91;5097249;28;20821;-83
2023/03/30 11:05:21;;;;;;;3.27;2.53;;;;;;;-143.84;28.16;45108.09;5097080;28;20442;-83
2023/03/30 11:07:55;;;;;;;4.20;3.07;;;;;;;-143.84;28.79;45129.03;5096488;28;20443;-76
2023/03/30 11:10:28;;;;;;;3.60;3.30;;;;;;;-143.84;29.78;45092.88;5091126;28;20586;-77
2023/03/30 11:12:59;;;;;;;2.80;2.60;;;;;;;-143.84;29.72;45106.19;5090441;28;20482;-77
2023/03/30 11:15:33;;;;;;;5.27;3.40;;;;;;;-143.84;29.44;45102.38;5089314;28;20485;-76
2023/03/30 11:18:05;;;;;;;3.73;3.40;;;;;;;-143.84;30.42;45119.53;5089931;28;20455;-76
2023/03/30 11:20:37;;;;;;;3.87;3.27;;;;;;;-143.84;29.25;45115.72;5090186;28;21045;-76
2023/03/30 11:23:14;;;;;;;3.93;2.77;;;;;;;-143.84;30.04;45087.16;5089641;28;20439;-76
2023/03/30 11:25:52;;;;;;;3.97;2.90;;;;;;;-143.84;29.94;45108.09;5088937;28;20439;-77
2023/03/30 11:28:37;;;;;;;3.27;2.97;;;;;;;-143.84;29.97;45130.94;5089047;28;20449;-76
2023/03/30 11:31:19;;;;;;;3.40;3.10;;;;;;;-143.84;29.34;45121.44;5088850;28;21213;-76
2023/03/30 11:33:54;;;;;;;3.83;2.87;;;;;;;-143.84;29.05;45108.09;5088749;28;20510;-77